createdAt,value
2023-02-25T00:01:22.985Z,16.40
2023-02-25T00:03:53.469Z,16.50
2023-02-25T00:06:24.132Z,16.40
2023-02-25T00:08:54.337Z,16.40
2023-02-25T00:11:25.694Z,16.40
2023-02-25T00:13:55.623Z,16.40
2023-02-25T00:16:26.108Z,16.40
2023-02-25T00:18:59.063Z,16.40
2023-02-25T00:21:29.732Z,16.40
2023-02-25T00:24:14.025Z,16.40
2023-02-25T00:26:45.342Z,16.40
2023-02-25T00:29:13.602Z,16.40
2023-02-25T00:31:42.120Z,16.40
2023-02-25T00:34:10.680Z,16.40
2023-02-25T00:36:39.840Z,16.40
2023-02-25T00:39:09.228Z,16.40
2023-02-25T00:41:37.669Z,16.40
2023-02-25T00:44:08.373Z,16.40
2023-02-25T00:46:36.963Z,16.40
2023-02-25T00:49:05.603Z,16.40
2023-02-25T00:51:34.832Z,16.40
2023-02-25T00:54:03.064Z,16.40
2023-02-25T00:56:31.896Z,16.40
2023-02-25T00:59:02.136Z,16.40
2023-02-25T01:01:34.274Z,16.40
2023-02-25T01:04:02.583Z,16.40
2023-02-25T01:06:33.040Z,16.40
2023-02-25T01:09:02.012Z,16.40
2023-02-25T01:11:31.789Z,16.40
2023-02-25T01:14:01.809Z,16.40
2023-02-25T01:16:33.595Z,16.40
2023-02-25T01:19:07.105Z,16.40
2023-02-25T01:21:37.361Z,16.40
2023-02-25T01:24:08.192Z,16.40
2023-02-25T01:26:39.531Z,16.40
2023-02-25T01:29:09.020Z,16.40
2023-02-25T01:31:38.989Z,16.40
2023-02-25T01:34:08.946Z,16.40
2023-02-25T01:36:37.189Z,16.40
2023-02-25T01:39:06.327Z,16.40
2023-02-25T01:41:36.911Z,16.40
2023-02-25T01:44:16.513Z,16.40
2023-02-25T01:46:47.726Z,16.40
2023-02-25T01:49:19.286Z,16.40
2023-02-25T01:51:49.915Z,16.40
2023-02-25T01:54:20.544Z,16.40
2023-02-25T01:56:52.555Z,16.40
2023-02-25T01:59:24.373Z,16.40
2023-02-25T02:01:53.980Z,16.30
2023-02-25T02:04:24.417Z,16.40
2023-02-25T02:06:53.910Z,16.40
2023-02-25T02:09:25.334Z,16.40
2023-02-25T02:11:53.650Z,16.40
2023-02-25T02:14:24.881Z,16.40
2023-02-25T02:17:13.435Z,16.40
2023-02-25T02:19:58.286Z,16.30
2023-02-25T02:22:35.405Z,16.30
2023-02-25T02:25:31.688Z,16.40
2023-02-25T02:28:25.101Z,16.40
2023-02-25T02:31:23.450Z,16.40
2023-02-25T02:33:59.611Z,16.40
2023-02-25T02:36:37.294Z,16.40
2023-02-25T02:39:12.983Z,16.30
2023-02-25T02:41:48.386Z,16.30
2023-02-25T02:44:21.127Z,16.30
2023-02-25T02:46:52.899Z,16.30
2023-02-25T02:49:28.108Z,16.30
2023-02-25T02:52:01.311Z,16.40
2023-02-25T02:54:36.333Z,16.40
2023-02-25T02:57:06.794Z,16.30
2023-02-25T02:59:43.215Z,16.40
2023-02-25T03:02:17.077Z,16.30
2023-02-25T03:04:50.200Z,16.30
2023-02-25T03:07:19.725Z,16.30
2023-02-25T03:09:50.923Z,16.30
2023-02-25T03:12:19.529Z,16.30
2023-02-25T03:14:47.841Z,16.30
2023-02-25T03:17:20.413Z,16.30
2023-02-25T03:19:54.715Z,16.30
2023-02-25T03:22:27.991Z,16.30
2023-02-25T03:25:02.189Z,16.30
2023-02-25T03:27:35.395Z,16.30
2023-02-25T03:30:12.627Z,16.30
2023-02-25T03:32:44.316Z,16.30
2023-02-25T03:35:16.162Z,16.30
2023-02-25T03:37:47.523Z,16.30
2023-02-25T03:40:17.436Z,16.30
2023-02-25T03:42:50.380Z,16.30
2023-02-25T03:45:19.148Z,16.30
2023-02-25T03:47:47.655Z,16.30
2023-02-25T03:50:22.216Z,16.30
2023-02-25T03:52:50.602Z,16.30
2023-02-25T03:55:19.690Z,16.30
2023-02-25T03:57:51.009Z,16.30
2023-02-25T04:00:22.929Z,16.30
2023-02-25T04:02:52.229Z,16.30
2023-02-25T04:05:24.990Z,16.30
2023-02-25T04:07:53.202Z,16.30
2023-02-25T04:10:21.919Z,16.30
2023-02-25T04:12:51.885Z,16.30
2023-02-25T04:15:21.173Z,16.30
2023-02-25T04:17:49.468Z,16.30
2023-02-25T04:20:20.225Z,16.30
2023-02-25T04:22:50.756Z,16.30
2023-02-25T04:25:19.051Z,16.30
2023-02-25T04:27:47.173Z,16.30
2023-02-25T04:30:16.507Z,16.30
2023-02-25T04:32:45.229Z,16.30
2023-02-25T04:35:13.833Z,16.40
2023-02-25T04:37:42.816Z,16.40
2023-02-25T04:40:16.772Z,16.30
2023-02-25T04:42:45.093Z,16.40
2023-02-25T04:45:15.320Z,16.30
2023-02-25T04:47:43.780Z,16.40
2023-02-25T04:50:13.749Z,16.40
2023-02-25T04:52:42.004Z,16.40
2023-02-25T04:55:10.980Z,16.40
2023-02-25T04:57:42.493Z,16.40
2023-02-25T05:00:19.071Z,16.40
2023-02-25T05:02:48.448Z,16.50
2023-02-25T05:05:17.549Z,16.50
2023-02-25T05:07:45.863Z,16.50
2023-02-25T05:10:15.664Z,16.50
2023-02-25T05:12:45.274Z,16.50
2023-02-25T05:15:13.746Z,16.60
2023-02-25T05:17:41.952Z,16.50
2023-02-25T05:20:13.244Z,16.50
2023-02-25T05:22:42.282Z,16.60
2023-02-25T05:25:11.952Z,16.60
2023-02-25T05:27:40.204Z,16.60
2023-02-25T05:30:11.344Z,16.60
2023-02-25T05:32:39.937Z,16.60
2023-02-25T05:35:10.130Z,16.60
2023-02-25T05:37:38.883Z,16.60
2023-02-25T05:40:09.439Z,16.70
2023-02-25T05:42:38.558Z,16.70
2023-02-25T05:45:09.582Z,16.70
2023-02-25T05:47:37.784Z,16.70
2023-02-25T05:50:06.827Z,16.70
2023-02-25T05:52:35.063Z,16.70
2023-02-25T05:55:03.365Z,16.70
2023-02-25T05:57:31.814Z,16.70
2023-02-25T06:00:01.616Z,16.70
2023-02-25T06:02:33.702Z,16.70
2023-02-25T06:05:02.632Z,16.70
2023-02-25T06:07:31.856Z,16.70
2023-02-25T06:10:01.942Z,16.70
2023-02-25T06:12:31.743Z,16.70
2023-02-25T06:15:00.303Z,16.70
2023-02-25T06:17:28.661Z,16.70
2023-02-25T06:19:58.303Z,16.70
2023-02-25T06:22:26.524Z,16.70
2023-02-25T06:24:54.672Z,16.70
2023-02-25T06:27:23.412Z,16.70
2023-02-25T06:29:51.629Z,16.70
2023-02-25T06:32:20.704Z,16.70
2023-02-25T06:34:49.031Z,16.70
2023-02-25T06:37:18.652Z,16.70
2023-02-25T06:39:46.940Z,16.70
2023-02-25T06:42:15.199Z,16.70
2023-02-25T06:44:43.349Z,16.70
2023-02-25T06:47:11.566Z,16.70
2023-02-25T06:49:40.164Z,16.70
2023-02-25T06:52:08.576Z,16.70
2023-02-25T06:54:38.331Z,16.70
2023-02-25T06:57:06.608Z,16.70
2023-02-25T06:59:35.764Z,16.70
2023-02-25T07:02:04.349Z,16.70
2023-02-25T07:04:32.742Z,16.70
2023-02-25T07:07:01.010Z,16.70
2023-02-25T07:09:29.252Z,16.70
2023-02-25T07:11:59.379Z,16.70
2023-02-25T07:14:27.742Z,16.70
2023-02-25T07:16:55.915Z,16.70
2023-02-25T07:19:24.168Z,16.70
2023-02-25T07:21:52.309Z,16.70
2023-02-25T07:24:20.430Z,16.70
2023-02-25T07:26:48.681Z,16.70
2023-02-25T07:29:18.281Z,16.70
2023-02-25T07:31:46.607Z,16.70
2023-02-25T07:34:15.238Z,16.70
2023-02-25T07:36:43.411Z,16.70
2023-02-25T07:39:13.354Z,16.70
2023-02-25T07:41:41.863Z,16.70
2023-02-25T07:44:10.376Z,16.70
2023-02-25T07:46:41.101Z,16.70
2023-02-25T07:49:09.297Z,16.70
2023-02-25T07:51:37.463Z,16.70
2023-02-25T07:54:05.990Z,16.70
2023-02-25T07:56:34.333Z,16.70
2023-02-25T07:59:02.550Z,16.70
2023-02-25T08:01:33.196Z,16.70
2023-02-25T08:04:05.821Z,16.70
2023-02-25T08:06:37.607Z,16.60
2023-02-25T08:09:06.783Z,16.60
2023-02-25T08:11:35.049Z,16.60
2023-02-25T08:14:03.298Z,16.70
2023-02-25T08:16:32.452Z,16.60
2023-02-25T08:19:03.930Z,16.60
2023-02-25T08:21:33.502Z,16.60
2023-02-25T08:24:01.748Z,16.60
2023-02-25T08:26:30.239Z,16.60
2023-02-25T08:28:58.751Z,16.60
2023-02-25T08:31:27.621Z,16.60
2023-02-25T08:33:57.302Z,16.60
2023-02-25T08:36:29.071Z,16.60
2023-02-25T08:38:59.543Z,16.60
2023-02-25T08:41:29.158Z,16.60
2023-02-25T08:44:00.442Z,16.60
2023-02-25T08:46:30.746Z,16.60
2023-02-25T08:48:59.365Z,16.60
2023-02-25T08:51:34.278Z,16.60
2023-02-25T08:54:04.652Z,16.60
2023-02-25T08:56:33.401Z,16.60
2023-02-25T08:59:01.811Z,16.60
2023-02-25T09:01:44.527Z,16.60
2023-02-25T09:04:13.696Z,16.50
2023-02-25T09:06:43.684Z,16.60
2023-02-25T09:09:13.386Z,16.60
2023-02-25T09:11:41.810Z,16.60
2023-02-25T09:14:10.782Z,16.50
2023-02-25T09:16:39.426Z,16.60
2023-02-25T09:19:08.182Z,16.50
2023-02-25T09:21:37.736Z,16.50
2023-02-25T09:24:08.245Z,16.50
2023-02-25T09:26:36.489Z,16.50
2023-02-25T09:29:06.751Z,16.60
2023-02-25T09:31:36.993Z,16.50
2023-02-25T09:34:07.994Z,16.50
2023-02-25T09:36:37.169Z,16.60
2023-02-25T09:39:10.431Z,16.60
2023-02-25T09:41:45.978Z,16.60
2023-02-25T09:44:16.744Z,16.50
2023-02-25T09:46:50.580Z,16.50
2023-02-25T09:49:27.040Z,16.50
2023-02-25T09:52:00.757Z,16.50
2023-02-25T09:54:36.044Z,16.50
2023-02-25T09:57:05.723Z,16.50
2023-02-25T09:59:34.472Z,16.50
2023-02-25T10:02:21.863Z,16.50
2023-02-25T10:05:04.268Z,16.50
2023-02-25T10:07:36.454Z,16.50
2023-02-25T10:10:14.450Z,16.50
2023-02-25T10:12:51.515Z,16.50
2023-02-25T10:15:32.746Z,16.50
2023-02-25T10:18:06.511Z,16.50
2023-02-25T10:20:53.364Z,16.50
2023-02-25T10:23:37.773Z,16.50
2023-02-25T10:26:18.011Z,16.50
2023-02-25T10:28:48.619Z,16.50
2023-02-25T10:31:19.541Z,16.50
2023-02-25T10:33:50.075Z,16.50
2023-02-25T10:36:20.762Z,16.50
2023-02-25T10:38:51.342Z,16.60
2023-02-25T10:41:23.031Z,16.60
2023-02-25T10:43:53.199Z,16.50
2023-02-25T10:46:27.456Z,16.50
2023-02-25T10:48:59.116Z,16.60
2023-02-25T10:51:29.586Z,16.60
2023-02-25T10:54:05.057Z,16.60
2023-02-25T10:56:41.691Z,16.60
2023-02-25T10:59:28.482Z,16.60
2023-02-25T11:01:59.921Z,16.60
2023-02-25T11:04:33.371Z,16.70
2023-02-25T11:07:01.741Z,16.60
2023-02-25T11:09:35.413Z,16.70
2023-02-25T11:12:13.308Z,16.70
2023-02-25T11:14:42.529Z,16.70
2023-02-25T11:17:16.184Z,16.70
2023-02-25T11:19:47.085Z,16.70
2023-02-25T11:22:19.701Z,16.70
2023-02-25T11:24:57.453Z,16.70
2023-02-25T11:27:38.996Z,16.80
2023-02-25T11:30:10.256Z,16.70
2023-02-25T11:32:44.319Z,16.80
2023-02-25T11:35:20.176Z,16.80
2023-02-25T11:37:49.506Z,16.80
2023-02-25T11:40:28.837Z,16.80
2023-02-25T11:43:18.185Z,16.80
2023-02-25T11:45:56.497Z,16.80
2023-02-25T11:48:29.042Z,16.80
2023-02-25T11:51:05.157Z,16.80
2023-02-25T11:53:47.664Z,16.80
2023-02-25T11:56:25.848Z,16.80
2023-02-25T11:59:12.784Z,16.80
2023-02-25T12:01:53.285Z,16.80
2023-02-25T12:04:44.222Z,16.80
2023-02-25T12:07:40.297Z,16.80
2023-02-25T12:10:46.806Z,16.80
2023-02-25T12:13:37.055Z,16.80
2023-02-25T12:16:52.555Z,16.80
2023-02-25T12:19:59.492Z,16.80
2023-02-25T12:22:59.710Z,16.80
2023-02-25T12:25:39.909Z,16.80
2023-02-25T12:28:27.891Z,16.80
2023-02-25T12:31:22.669Z,16.80
2023-02-25T12:34:15.550Z,16.80
2023-02-25T12:36:56.912Z,16.80
2023-02-25T12:39:44.613Z,16.80
2023-02-25T12:42:38.132Z,16.80
2023-02-25T12:45:39.520Z,16.80
2023-02-25T12:48:44.635Z,16.80
2023-02-25T12:51:48.149Z,16.80
2023-02-25T12:54:54.200Z,16.80
2023-02-25T12:57:39.148Z,16.80
2023-02-25T13:00:38.784Z,16.80
2023-02-25T13:03:21.321Z,16.80
2023-02-25T13:06:08.047Z,16.80
2023-02-25T13:08:54.825Z,16.80
2023-02-25T13:11:34.557Z,16.80
2023-02-25T13:14:30.059Z,16.80
2023-02-25T13:17:13.757Z,16.80
2023-02-25T13:20:01.630Z,16.70
2023-02-25T13:22:50.825Z,16.70
2023-02-25T13:25:26.744Z,16.70
2023-02-25T13:28:23.022Z,16.70
2023-02-25T13:30:58.291Z,16.70
2023-02-25T13:33:52.832Z,16.80
2023-02-25T13:36:45.728Z,16.70
2023-02-25T13:39:41.695Z,16.70
2023-02-25T13:42:32.066Z,16.70
2023-02-25T13:45:30.836Z,16.70
2023-02-25T13:48:11.370Z,16.70
2023-02-25T13:51:04.936Z,16.70
2023-02-25T13:54:03.362Z,16.70
2023-02-25T13:56:56.548Z,16.70
2023-02-25T13:59:44.608Z,16.70
2023-02-25T14:02:31.882Z,16.70
2023-02-25T14:05:23.930Z,16.70
2023-02-25T14:08:15.212Z,16.70
2023-02-25T14:10:51.127Z,16.70
2023-02-25T14:13:42.062Z,16.70
2023-02-25T14:16:24.072Z,16.70
2023-02-25T14:19:10.186Z,16.70
2023-02-25T14:22:13.051Z,16.70
2023-02-25T14:24:46.986Z,16.70
2023-02-25T14:27:25.754Z,16.70
2023-02-25T14:30:11.066Z,16.70
2023-02-25T14:32:56.067Z,16.70
2023-02-25T14:35:56.039Z,16.70
2023-02-25T14:38:32.204Z,16.70
2023-02-25T14:41:13.413Z,16.70
2023-02-25T14:43:41.675Z,16.70
2023-02-25T14:46:23.134Z,16.60
2023-02-25T14:49:01.105Z,16.60
2023-02-25T14:52:09.145Z,16.70
2023-02-25T14:55:16.009Z,16.60
2023-02-25T14:58:21.970Z,16.60
2023-02-25T15:01:10.907Z,16.60
2023-02-25T15:04:17.398Z,16.60
2023-02-25T15:07:01.117Z,16.60
2023-02-25T15:09:49.409Z,16.60
2023-02-25T15:12:28.626Z,16.60
2023-02-25T15:15:25.174Z,16.60
2023-02-25T15:18:42.245Z,16.60
2023-02-25T15:21:41.174Z,16.60
2023-02-25T15:24:12.760Z,16.60
2023-02-25T15:26:44.566Z,16.60
2023-02-25T15:29:58.104Z,16.60
2023-02-25T15:32:30.038Z,16.60
2023-02-25T15:35:00.880Z,16.60
2023-02-25T15:37:36.591Z,16.60
2023-02-25T15:40:34.434Z,16.60
2023-02-25T15:43:03.454Z,16.60
2023-02-25T15:45:42.736Z,16.60
2023-02-25T15:48:39.125Z,16.70
2023-02-25T15:51:13.041Z,16.70
2023-02-25T15:53:46.117Z,16.70
2023-02-25T15:56:51.739Z,16.70
2023-02-25T15:59:43.396Z,16.70
2023-02-25T16:02:34.807Z,16.70
2023-02-25T16:05:06.255Z,16.70
2023-02-25T16:07:37.484Z,16.70
2023-02-25T16:10:09.553Z,16.80
2023-02-25T16:12:42.873Z,16.80
2023-02-25T16:15:20.468Z,16.80
2023-02-25T16:17:49.457Z,16.80
2023-02-25T16:20:24.594Z,16.80
2023-02-25T16:22:57.630Z,16.80
2023-02-25T16:25:38.119Z,16.80
2023-02-25T16:28:15.463Z,16.80
2023-02-25T16:30:51.178Z,16.80
2023-02-25T16:33:26.375Z,16.80
2023-02-25T16:36:07.394Z,16.80
2023-02-25T16:38:42.738Z,16.80
2023-02-25T16:41:14.187Z,16.80
2023-02-25T16:43:43.875Z,16.80
2023-02-25T16:46:14.644Z,16.80
2023-02-25T16:48:50.313Z,16.80
2023-02-25T16:51:25.851Z,16.80
2023-02-25T16:53:58.012Z,16.80
2023-02-25T16:56:31.366Z,16.80
2023-02-25T16:59:02.448Z,16.80
2023-02-25T17:01:31.619Z,16.80
2023-02-25T17:04:13.110Z,16.90
2023-02-25T17:06:41.479Z,16.80
2023-02-25T17:09:23.918Z,16.90
2023-02-25T17:11:56.844Z,16.80
2023-02-25T17:14:25.939Z,16.90
2023-02-25T17:16:54.391Z,16.90
2023-02-25T17:19:24.452Z,16.90
2023-02-25T17:21:55.173Z,16.90
2023-02-25T17:24:28.449Z,16.90
2023-02-25T17:26:58.601Z,16.90
2023-02-25T17:29:35.954Z,16.90
2023-02-25T17:32:18.716Z,16.90
2023-02-25T17:34:48.616Z,16.90
2023-02-25T17:37:18.828Z,16.90
2023-02-25T17:39:47.998Z,17.00
2023-02-25T17:42:33.698Z,16.90
2023-02-25T17:45:02.969Z,17.00
2023-02-25T17:47:33.709Z,17.00
2023-02-25T17:50:21.185Z,17.00
2023-02-25T17:52:50.137Z,17.00
2023-02-25T17:55:25.556Z,17.00
2023-02-25T17:57:59.198Z,16.90
2023-02-25T18:00:29.625Z,17.00
2023-02-25T18:03:15.504Z,17.00
2023-02-25T18:05:51.306Z,17.00
2023-02-25T18:08:22.205Z,17.00
2023-02-25T18:10:54.949Z,17.00
2023-02-25T18:13:29.017Z,17.00
2023-02-25T18:16:38.133Z,17.00
2023-02-25T18:19:28.827Z,17.00
2023-02-25T18:21:57.784Z,17.00
2023-02-25T18:24:33.106Z,17.00
2023-02-25T18:27:20.350Z,17.00
2023-02-25T18:29:49.916Z,17.00
2023-02-25T18:32:18.355Z,17.00
2023-02-25T18:34:46.682Z,16.90
2023-02-25T18:37:17.464Z,17.00
2023-02-25T18:39:47.400Z,17.00
2023-02-25T18:42:17.563Z,17.00
2023-02-25T18:44:47.308Z,17.00
2023-02-25T18:47:18.169Z,17.00
2023-02-25T18:49:46.836Z,17.00
2023-02-25T18:52:22.232Z,17.00
2023-02-25T18:54:50.777Z,17.00
2023-02-25T18:57:24.355Z,17.00
2023-02-25T18:59:53.017Z,17.00
2023-02-25T19:02:29.902Z,17.00
2023-02-25T19:04:58.459Z,17.00
2023-02-25T19:07:27.798Z,17.00
2023-02-25T19:09:56.968Z,17.00
2023-02-25T19:12:27.221Z,17.00
2023-02-25T19:14:59.692Z,17.00
2023-02-25T19:17:30.181Z,17.00
2023-02-25T19:19:59.029Z,17.00
2023-02-25T19:22:27.387Z,17.00
2023-02-25T19:24:55.567Z,17.00
2023-02-25T19:27:25.991Z,17.00
2023-02-25T19:29:56.036Z,17.00
2023-02-25T19:32:25.395Z,17.00
2023-02-25T19:34:55.083Z,17.00
2023-02-25T19:37:23.268Z,17.00
2023-02-25T19:39:51.430Z,17.00
2023-02-25T19:42:19.816Z,17.00
2023-02-25T19:44:48.146Z,17.00
2023-02-25T19:47:16.401Z,17.00
2023-02-25T19:49:44.983Z,17.00
2023-02-25T19:52:15.279Z,17.10
2023-02-25T19:54:43.630Z,17.10
2023-02-25T19:57:12.619Z,17.00
2023-02-25T19:59:41.960Z,17.00
2023-02-25T20:02:13.454Z,17.00
2023-02-25T20:04:42.276Z,17.00
2023-02-25T20:07:10.970Z,17.00
2023-02-25T20:09:40.721Z,17.00
2023-02-25T20:12:09.721Z,17.00
2023-02-25T20:14:37.991Z,17.00
2023-02-25T20:17:06.297Z,17.00
2023-02-25T20:19:34.597Z,17.00
2023-02-25T20:22:05.079Z,17.00
2023-02-25T20:24:34.383Z,17.00
2023-02-25T20:27:04.091Z,17.00
2023-02-25T20:29:32.434Z,17.00
2023-02-25T20:32:01.004Z,17.00
2023-02-25T20:34:29.755Z,17.00
2023-02-25T20:37:01.083Z,17.00
2023-02-25T20:39:49.362Z,17.00
2023-02-25T20:42:21.285Z,17.00
2023-02-25T20:44:51.801Z,17.00
2023-02-25T20:47:22.494Z,17.00
2023-02-25T20:49:51.837Z,17.00
2023-02-25T20:52:20.422Z,17.00
2023-02-25T20:54:49.952Z,17.00
2023-02-25T20:57:21.781Z,17.00
2023-02-25T20:59:50.818Z,17.00
2023-02-25T21:02:19.601Z,17.00
2023-02-25T21:04:47.856Z,17.00
2023-02-25T21:07:16.475Z,17.00
2023-02-25T21:09:44.940Z,17.00
2023-02-25T21:12:13.197Z,17.00
2023-02-25T21:14:42.972Z,17.00
2023-02-25T21:17:13.687Z,17.00
2023-02-25T21:19:42.333Z,17.00
2023-02-25T21:22:10.604Z,17.00
2023-02-25T21:24:38.740Z,17.00
2023-02-25T21:27:07.193Z,17.00
2023-02-25T21:29:35.335Z,17.00
2023-02-25T21:32:05.458Z,16.90
2023-02-25T21:34:33.634Z,17.00
2023-02-25T21:37:01.831Z,17.00
2023-02-25T21:39:30.144Z,16.90
2023-02-25T21:41:58.412Z,16.90
2023-02-25T21:44:26.682Z,16.90
2023-02-25T21:46:55.640Z,16.90
2023-02-25T21:49:27.085Z,16.90
2023-02-25T21:51:55.281Z,16.90
2023-02-25T21:54:23.406Z,16.90
2023-02-25T21:56:51.618Z,16.90
2023-02-25T21:59:20.007Z,16.90
2023-02-25T22:01:48.301Z,16.90
2023-02-25T22:04:16.701Z,16.90
2023-02-25T22:06:48.841Z,16.90
2023-02-25T22:09:18.022Z,16.90
2023-02-25T22:11:46.183Z,16.90
2023-02-25T22:14:14.405Z,16.90
2023-02-25T22:16:42.576Z,16.90
2023-02-25T22:19:10.953Z,16.90
2023-02-25T22:21:39.115Z,16.90
2023-02-25T22:24:08.748Z,16.90
2023-02-25T22:26:37.835Z,16.90
2023-02-25T22:29:09.083Z,16.90
2023-02-25T22:31:37.871Z,16.90
2023-02-25T22:34:07.128Z,16.90
2023-02-25T22:36:35.603Z,16.90
2023-02-25T22:39:06.278Z,16.90
2023-02-25T22:41:36.184Z,16.90
2023-02-25T22:44:05.670Z,16.90
2023-02-25T22:46:36.204Z,16.90
2023-02-25T22:49:05.732Z,16.90
2023-02-25T22:51:35.479Z,16.90
2023-02-25T22:54:05.314Z,16.80
2023-02-25T22:56:34.993Z,16.90
2023-02-25T22:59:03.232Z,16.80
2023-02-25T23:01:31.570Z,16.80
2023-02-25T23:04:00.578Z,16.80
2023-02-25T23:06:42.909Z,16.80
2023-02-25T23:09:12.428Z,16.80
2023-02-25T23:11:43.515Z,16.80
2023-02-25T23:14:11.645Z,16.80
2023-02-25T23:16:42.245Z,16.80
2023-02-25T23:19:13.062Z,16.80
2023-02-25T23:21:41.310Z,16.80
2023-02-25T23:24:13.944Z,16.80
2023-02-25T23:26:44.872Z,16.80
2023-02-25T23:29:13.764Z,16.80
2023-02-25T23:31:44.987Z,16.80
2023-02-25T23:34:15.118Z,16.80
2023-02-25T23:36:44.976Z,16.80
2023-02-25T23:39:14.847Z,16.80
2023-02-25T23:41:44.753Z,16.80
2023-02-25T23:44:14.783Z,16.80
2023-02-25T23:46:45.157Z,16.80
2023-02-25T23:49:16.647Z,16.80
2023-02-25T23:51:46.876Z,16.80
2023-02-25T23:54:18.183Z,16.80
2023-02-25T23:56:48.126Z,16.80
2023-02-25T23:59:16.628Z,16.80
